Yvonne K. — PBLX — position and weather

sailwx.info

Track history (hours):
 
Tides and Currents Weather Stations Pressure Air Temp Water Temp Dewpoint Dewpoint Depression Visibility Wind Speed Wind Dir Waves Ship Positions

Yvonne K.

Last reported at 2014-Oct-29 12:27 UTC. Time now 2014-Nov-01 09:05 UTC.
Position N 38°39' W 009°49'.

Length 90 m; draft 5.6 m.

Type: Cargo ship. MMSI: 244948000.

Date/timePositionNaut miles runAvg speedWind from/ knotsBaromVisibWave heightAir tempDewpointWater temp
2014-Oct-29 12:27N 38°39' W 009°49'17 8.3
2014-Oct-29 10:23N 38°22' W 009°44'10 8.5
2014-Oct-29 09:11N 38°12' W 009°41'6 8.8
2014-Oct-29 08:33N 38°07' W 009°39'17 8.7
2014-Oct-29 06:33N 37°50' W 009°35'9 8.9
2014-Oct-29 05:33N 37°41' W 009°32'11 8.8
2014-Oct-29 04:19N 37°30' W 009°29'95 7.5
2014-Oct-28 15:32N 36°28' W 007°59'129 8.6
2014-Oct-28 00:33N 36°03' W 005°22'9 9.2
2014-Oct-27 23:33N 36°07' W 005°12'218 9.0
2014-Oct-26 23:12N 37°02' W 000°49'6 9.1
2014-Oct-26 22:30N 37°05' W 000°42'9 8.8
2014-Oct-26 21:28N 37°09' W 000°32'11 8.9
2014-Oct-26 20:15N 37°14' W 000°20'6 9.0
2014-Oct-26 19:32N 37°17' W 000°12'9 8.9
2014-Oct-26 18:34N 37°21' W 000°03'9 9.0
2014-Oct-26 17:34N 37°25' E 000°07'9 9.2
2014-Oct-26 16:33N 37°30' E 000°17'9 9.3
2014-Oct-26 15:34N 37°34' E 000°28'10 9.4
2014-Oct-26 14:33N 37°39' E 000°38'19 9.4
2014-Oct-26 12:33N 37°47' E 000°59'90 9.0
2014-Oct-26 02:33N 38°30' E 002°40'10 9.1
2014-Oct-26 01:25N 38°35' E 002°52'8 9.0
2014-Oct-26 00:29N 38°39' E 003°01'8 8.8
2014-Oct-25 23:31N 38°43' E 003°11'8 8.7
2014-Oct-25 22:33N 38°47' E 003°20'9 8.6
2014-Oct-25 21:30N 38°51' E 003°30'10 8.7
2014-Oct-25 20:23N 38°55' E 003°41'218 8.3
2014-Oct-24 18:05N 39°47' E 008°16'  
2014-Oct-22 12:06N 39°49' E 008°19'3 4.3
2014-Oct-22 11:26N 39°48' E 008°16'317 9.0
2014-Oct-21 00:11N 40°03' E 001°23'5010.1
2014-Oct-20 19:16N 39°59' E 000°19'13 0.5
2014-Oct-19 15:12N 39°58' E 000°02'  
Track history (hours):
 
Tides and Currents Weather Stations Pressure Air Temp Water Temp Dewpoint Dewpoint Depression Visibility Wind Speed Wind Dir Waves Ship Positions

Yvonne K.

Last reported at 2014-Oct-29 12:27 UTC. Time now 2014-Nov-01 09:05 UTC.
Position N 38°39' W 009°49'.

Length 90 m; draft 5.6 m.

Type: Cargo ship. MMSI: 244948000.

Date/timePositionNaut miles runAvg speedWind from/ knotsBaromVisibWave heightAir tempDewpointWater temp
2014-Oct-29 12:27N 38°39' W 009°49'17 8.3
2014-Oct-29 10:23N 38°22' W 009°44'10 8.5
2014-Oct-29 09:11N 38°12' W 009°41'6 8.8
2014-Oct-29 08:33N 38°07' W 009°39'17 8.7
2014-Oct-29 06:33N 37°50' W 009°35'9 8.9
2014-Oct-29 05:33N 37°41' W 009°32'11 8.8
2014-Oct-29 04:19N 37°30' W 009°29'95 7.5
2014-Oct-28 15:32N 36°28' W 007°59'129 8.6
2014-Oct-28 00:33N 36°03' W 005°22'9 9.2
2014-Oct-27 23:33N 36°07' W 005°12'218 9.0
2014-Oct-26 23:12N 37°02' W 000°49'6 9.1
2014-Oct-26 22:30N 37°05' W 000°42'9 8.8
2014-Oct-26 21:28N 37°09' W 000°32'11 8.9
2014-Oct-26 20:15N 37°14' W 000°20'6 9.0
2014-Oct-26 19:32N 37°17' W 000°12'9 8.9
2014-Oct-26 18:34N 37°21' W 000°03'9 9.0
2014-Oct-26 17:34N 37°25' E 000°07'9 9.2
2014-Oct-26 16:33N 37°30' E 000°17'9 9.3
2014-Oct-26 15:34N 37°34' E 000°28'10 9.4
2014-Oct-26 14:33N 37°39' E 000°38'19 9.4
2014-Oct-26 12:33N 37°47' E 000°59'90 9.0
2014-Oct-26 02:33N 38°30' E 002°40'10 9.1
2014-Oct-26 01:25N 38°35' E 002°52'8 9.0
2014-Oct-26 00:29N 38°39' E 003°01'8 8.8
2014-Oct-25 23:31N 38°43' E 003°11'8 8.7
2014-Oct-25 22:33N 38°47' E 003°20'9 8.6
2014-Oct-25 21:30N 38°51' E 003°30'10 8.7
2014-Oct-25 20:23N 38°55' E 003°41'218 8.3
2014-Oct-24 18:05N 39°47' E 008°16'  
2014-Oct-22 12:06N 39°49' E 008°19'3 4.3
2014-Oct-22 11:26N 39°48' E 008°16'317 9.0
2014-Oct-21 00:11N 40°03' E 001°23'5010.1
2014-Oct-20 19:16N 39°59' E 000°19'13 0.5
2014-Oct-19 15:12N 39°58' E 000°02'  

Dump ship's entire track history